Map

Track Data

SID SEASON NUMBER BASIN SUBBASIN NAME ISO_TIME NATURE LAT LON WMO_WIND WMO_PRES WMO_AGENCY TRACK_TYPE DIST2LAND LANDFALL IFLAG USA_AGENCY USA_ATCF_ID USA_LAT USA_LON USA_RECORD USA_STATUS USA_WIND USA_PRES USA_SSHS USA_R34_NE USA_R34_SE USA_R34_SW USA_R34_NW USA_R50_NE USA_R50_SE USA_R50_SW USA_R50_NW USA_R64_NE USA_R64_SE USA_R64_SW USA_R64_NW USA_POCI USA_ROCI USA_RMW USA_EYE TOKYO_LAT TOKYO_LON TOKYO_GRADE TOKYO_WIND TOKYO_PRES TOKYO_R50_DIR TOKYO_R50_LONG TOKYO_R50_SHORT TOKYO_R30_DIR TOKYO_R30_LONG TOKYO_R30_SHORT TOKYO_LAND CMA_LAT CMA_LON CMA_CAT CMA_WIND CMA_PRES HKO_LAT HKO_LON HKO_CAT HKO_WIND HKO_PRES NEWDELHI_LAT NEWDELHI_LON NEWDELHI_GRADE NEWDELHI_WIND NEWDELHI_PRES NEWDELHI_CI NEWDELHI_DP NEWDELHI_POCI REUNION_LAT REUNION_LON REUNION_TYPE REUNION_WIND REUNION_PRES REUNION_TNUM REUNION_CI REUNION_RMW REUNION_R34_NE REUNION_R34_SE REUNION_R34_SW REUNION_R34_NW REUNION_R50_NE REUNION_R50_SE REUNION_R50_SW REUNION_R50_NW REUNION_R64_NE REUNION_R64_SE REUNION_R64_SW REUNION_R64_NW BOM_LAT BOM_LON BOM_TYPE BOM_WIND BOM_PRES BOM_TNUM BOM_CI BOM_RMW BOM_R34_NE BOM_R34_SE BOM_R34_SW BOM_R34_NW BOM_R50_NE BOM_R50_SE BOM_R50_SW BOM_R50_NW BOM_R64_NE BOM_R64_SE BOM_R64_SW BOM_R64_NW BOM_ROCI BOM_POCI BOM_EYE BOM_POS_METHOD BOM_PRES_METHOD NADI_LAT NADI_LON NADI_CAT NADI_WIND NADI_PRES WELLINGTON_LAT WELLINGTON_LON WELLINGTON_WIND WELLINGTON_PRES DS824_LAT DS824_LON DS824_STAGE DS824_WIND DS824_PRES TD9636_LAT TD9636_LON TD9636_STAGE TD9636_WIND TD9636_PRES TD9635_LAT TD9635_LON TD9635_WIND TD9635_PRES TD9635_ROCI NEUMANN_LAT NEUMANN_LON NEUMANN_CLASS NEUMANN_WIND NEUMANN_PRES MLC_LAT MLC_LON MLC_CLASS MLC_WIND MLC_PRES USA_GUST BOM_GUST BOM_GUST_PER REUNION_GUST REUNION_GUST_PER USA_SEAHGT USA_SEARAD_NE USA_SEARAD_SE USA_SEARAD_SW USA_SEARAD_NW STORM_SPEED STORM_DIR
1975186N11267 1975 54 EP MM DENISE 1975-07-04 18:00:00 NR 11.0000 -93.0000 main 373 373 __________O___ -1 11.0000 -93.0000 1 30 13 261
1975186N11267 1975 54 EP MM DENISE 1975-07-04 21:00:00 NR 10.8957 -93.6660 main 423 423 __________P___ -1 10.8957 -93.6660 1 30 14 262
1975186N11267 1975 54 EP MM DENISE 1975-07-05 00:00:00 TS 10.8000 -94.4000 25 hurdat_epa main 474 474 O________OO___ hurdat_epa EP041975 10.8000 -94.4000 TD 25 -1 10.8000 -94.4000 TC 25 10.8000 -94.4000 1 30 16 265
1975186N11267 1975 54 EP MM DENISE 1975-07-05 03:00:00 TS 10.7380 -95.3353 main 542 542 P________PP___ EP041975 10.7457 -95.3801 TD 25 -1 10.7457 -95.3801 TC 25 10.7226 -95.2458 1 30 18 267
1975186N11267 1975 54 EP MM DENISE 1975-07-05 06:00:00 TS 10.6932 -96.2620 25 hurdat_epa main 549 548 O________OP___ hurdat_epa EP041975 10.7000 -96.3000 TD 25 -1 10.7000 -96.3000 TC 25 10.6730 -96.1479 1 30 17 268
1975186N11267 1975 54 EP MM DENISE 1975-07-05 09:00:00 TS 10.6742 -97.0932 main 551 551 P________PP___ EP041975 10.6773 -97.1100 TD 25 -1 10.6773 -97.1100 TC 25 10.6617 -97.0261 1 30 15 270
1975186N11267 1975 54 EP MM DENISE 1975-07-05 12:00:00 TS 10.7000 -97.8000 25 hurdat_epa main 563 563 O________OO___ hurdat_epa EP041975 10.7000 -97.8000 TD 25 -1 10.7000 -97.8000 TC 25 10.7000 -97.8000 1 30 13 274
1975186N11267 1975 54 EP MM DENISE 1975-07-05 15:00:00 TS 10.7724 -98.4082 main 571 571 P________PP___ EP041975 10.7699 -98.4100 TD 27 -1 10.7699 -98.4100 TC 27 10.7824 -98.4011 1 30 11 281
1975186N11267 1975 54 EP MM DENISE 1975-07-05 18:00:00 TS 10.9033 -98.8974 30 hurdat_epa main 582 572 O________OP___ hurdat_epa EP041975 10.9000 -98.9000 TD 30 -1 10.9000 -98.9000 TC 30 10.9163 -98.8869 1 30 9 290
1975186N11267 1975 54 EP MM DENISE 1975-07-05 21:00:00 TS 11.0803 -99.2919 main 572 561 P________PP___ EP041975 11.0774 -99.2950 TD 30 -1 11.0774 -99.2950 TC 30 11.0921 -99.2794 1 30 8 300
1975186N11267 1975 54 EP MM DENISE 1975-07-06 00:00:00 TS 11.3000 -99.6000 30 hurdat_epa main 561 548 O________OO___ hurdat_epa EP041975 11.3000 -99.6000 TD 30 -1 11.3000 -99.6000 TC 30 11.3000 -99.6000 1 30 7 309
1975186N11267 1975 54 EP MM DENISE 1975-07-06 03:00:00 TS 11.5381 -99.8768 main 552 529 P________PP___ EP041975 11.5425 -99.8725 TD 30 -1 11.5425 -99.8725 TC 30 11.5209 -99.8939 1 30 7 315
1975186N11267 1975 54 EP MM DENISE 1975-07-06 06:00:00 TS 11.7939 -100.105 30 hurdat_epa main 529 511 O________OP___ hurdat_epa EP041975 11.8000 -100.100 TD 30 -1 11.8000 -100.100 TC 30 11.7695 -100.125 1 30 7 320
1975186N11267 1975 54 EP MM DENISE 1975-07-06 09:00:00 TS 12.0467 -100.310 main 515 492 P________PP___ EP041975 12.0500 -100.308 TD 30 -1 12.0500 -100.308 TC 30 12.0335 -100.319 1 30 6 323
1975186N11267 1975 54 EP MM DENISE 1975-07-06 12:00:00 TS 12.3000 -100.500 30 hurdat_epa main 492 476 O________OO___ hurdat_epa EP041975 12.3000 -100.500 TD 30 -1 12.3000 -100.500 TC 30 12.3000 -100.500 1 30 6 323
1975186N11267 1975 54 EP MM DENISE 1975-07-06 15:00:00 TS 12.5508 -100.701 main 471 455 P________PP___ EP041975 12.5500 -100.700 TD 30 -1 12.5500 -100.700 TC 30 12.5540 -100.703 1 32 6 322
1975186N11267 1975 54 EP MM DENISE 1975-07-06 18:00:00 TS 12.8015 -100.900 30 hurdat_epa main 455 437 O________OP___ hurdat_epa EP041975 12.8000 -100.900 TD 30 -1 12.8000 -100.900 TC 30 12.8074 -100.900 1 35 6 322
1975186N11267 1975 54 EP MM DENISE 1975-07-06 21:00:00 TS 13.0514 -101.099 main 430 417 P________PP___ EP041975 13.0500 -101.100 TD 37 0 13.0500 -101.100 TC 37 13.0571 -101.097 1 37 6 322
1975186N11267 1975 54 EP MM DENISE 1975-07-07 00:00:00 TS 13.3000 -101.300 45 hurdat_epa main 417 402 O________OO___ hurdat_epa EP041975 13.3000 -101.300 TS 45 0 13.3000 -101.300 TC 45 13.3000 -101.300 2 40 6 322
1975186N11267 1975 54 EP MM DENISE 1975-07-07 03:00:00 TS 13.5532 -101.495 main 397 389 P________PP___ EP041975 13.5575 -101.493 TS 45 0 13.5575 -101.493 TC 45 13.5361 -101.506 2 42 6 321
1975186N11267 1975 54 EP MM DENISE 1975-07-07 06:00:00 TS 13.7930 -101.704 45 hurdat_epa main 389 377 O________OP___ hurdat_epa EP041975 13.8000 -101.700 TS 45 0 13.8000 -101.700 TC 45 13.7648 -101.720 2 45 6 316
1975186N11267 1975 54 EP MM DENISE 1975-07-07 09:00:00 TS 14.0032 -101.938 main 377 363 P________PP___ EP041975 14.0075 -101.935 TS 47 0 14.0075 -101.935 TC 47 13.9861 -101.950 2 47 6 310
1975186N11267 1975 54 EP MM DENISE 1975-07-07 12:00:00 TS 14.2000 -102.200 50 hurdat_epa main 366 353 O________OO___ hurdat_epa EP041975 14.2000 -102.200 TS 50 0 14.2000 -102.200 TC 50 14.2000 -102.200 2 50 7 307
1975186N11267 1975 54 EP MM DENISE 1975-07-07 15:00:00 TS 14.4023 -102.492 main 357 347 P________PP___ EP041975 14.4000 -102.493 TS 55 0 14.4000 -102.493 TC 55 14.4114 -102.491 2 56 7 305
1975186N11267 1975 54 EP MM DENISE 1975-07-07 18:00:00 TS 14.6030 -102.800 60 hurdat_epa main 352 345 O________OP___ hurdat_epa EP041975 14.6000 -102.800 TS 60 0 14.6000 -102.800 TC 60 14.6152 -102.800 2 62 7 304
1975186N11267 1975 54 EP MM DENISE 1975-07-07 21:00:00 TS 14.8023 -103.114 main 352 341 P________PP___ EP041975 14.8000 -103.115 TS 67 1 14.8000 -103.115 TC 67 14.8114 -103.109 2 68 7 304
1975186N11267 1975 54 EP MM DENISE 1975-07-08 00:00:00 TS 15.0000 -103.400 75 hurdat_epa main 345 330 O________OO___ hurdat_epa EP041975 15.0000 -103.400 HU 75 1 15.0000 -103.400 TC 75 15.0000 -103.400 4 75 6 310
1975186N11267 1975 54 EP MM DENISE 1975-07-08 03:00:00 TS 15.2055 -103.609 main 330 316 P________PP___ EP041975 15.2074 -103.608 HU 77 1 15.2074 -103.608 TC 77 15.1980 -103.614 4 80 6 316
1975186N11267 1975 54 EP MM DENISE 1975-07-08 06:00:00 TS 15.3974 -103.803 80 hurdat_epa main 316 303 O________OP___ hurdat_epa EP041975 15.4000 -103.800 HU 80 1 15.4000 -103.800 TC 80 15.3868 -103.813 4 85 5 312
1975186N11267 1975 54 EP MM DENISE 1975-07-08 09:00:00 TS 15.5634 -104.022 main 303 299 P________PP___ EP041975 15.5649 -104.020 HU 87 2 15.5649 -104.020 TC 87 15.5572 -104.030 4 90 6 302
1975186N11267 1975 54 EP MM DENISE 1975-07-08 12:00:00 TS 15.7000 -104.300 95 hurdat_epa main 303 299 O________OO___ hurdat_epa EP041975 15.7000 -104.300 HU 95 2 15.7000 -104.300 TC 95 15.7000 -104.300 4 95 7 292
1975186N11267 1975 54 EP MM DENISE 1975-07-08 15:00:00 TS 15.8152 -104.666 main 307 302 P________PP___ EP041975 15.8150 -104.670 HU 100 3 15.8150 -104.670 TC 100 15.8159 -104.651 4 98 8 285
1975186N11267 1975 54 EP MM DENISE 1975-07-08 18:00:00 TS 15.9005 -105.092 105 hurdat_epa main 317 317 O________OP___ hurdat_epa EP041975 15.9000 -105.100 HU 105 3 15.9000 -105.100 TC 105 15.9024 -105.060 4 102 8 280
1975186N11267 1975 54 EP MM DENISE 1975-07-08 21:00:00 TS 15.9584 -105.531 main 333 333 P________PP___ EP041975 15.9574 -105.535 HU 105 3 15.9574 -105.535 TC 105 15.9626 -105.514 4 106 9 277
1975186N11267 1975 54 EP MM DENISE 1975-07-09 00:00:00 TS 16.0000 -106.000 105 hurdat_epa main 369 369 O________OO___ hurdat_epa EP041975 16.0000 -106.000 HU 105 3 16.0000 -106.000 TC 105 16.0000 -106.000 4 110 9 277
1975186N11267 1975 54 EP MM DENISE 1975-07-09 03:00:00 TS 16.0651 -106.485 main 390 390 P________PP___ EP041975 16.0649 -106.485 HU 107 3 16.0649 -106.485 TC 107 16.0660 -106.488 4 112 10 276
1975186N11267 1975 54 EP MM DENISE 1975-07-09 06:00:00 TS 16.1009 -107.001 110 hurdat_epa main 417 417 O________OP___ hurdat_epa EP041975 16.1000 -107.000 HU 110 3 16.1000 -107.000 TC 110 16.1046 -107.004 4 115 10 271
1975186N11267 1975 54 EP MM DENISE 1975-07-09 09:00:00 TS 16.0881 -107.537 main 449 449 P________PP___ EP041975 16.0874 -107.535 HU 115 4 16.0874 -107.535 TC 115 16.0909 -107.544 4 117 11 265
1975186N11267 1975 54 EP MM DENISE 1975-07-09 12:00:00 TS 16.0000 -108.100 120 hurdat_epa main 500 500 O________OO___ hurdat_epa EP041975 16.0000 -108.100 HU 120 4 16.0000 -108.100 TC 120 16.0000 -108.100 4 120 11 257
1975186N11267 1975 54 EP MM DENISE 1975-07-09 15:00:00 TS 15.8400 -108.693 main 561 561 P________PP___ EP041975 15.8450 -108.700 HU 120 4 15.8450 -108.700 TC 120 15.8201 -108.665 4 117 12 250
1975186N11267 1975 54 EP MM DENISE 1975-07-09 18:00:00 TS 15.5924 -109.289 120 hurdat_epa main 623 623 O________OP___ hurdat_epa EP041975 15.6000 -109.300 HU 120 4 15.6000 -109.300 TC 120 15.5622 -109.243 4 115 13 243
1975186N11267 1975 54 EP MM DENISE 1975-07-09 21:00:00 TS 15.2795 -109.851 main 693 693 P________PP___ EP041975 15.2873 -109.857 HU 115 4 15.2873 -109.857 TC 115 15.2482 -109.824 4 112 13 237
1975186N11267 1975 54 EP MM DENISE 1975-07-10 00:00:00 TS 14.9000 -110.400 110 hurdat_epa main 762 762 O________OO___ hurdat_epa EP041975 14.9000 -110.400 HU 110 3 14.9000 -110.400 TC 110 14.9000 -110.400 4 110 14 232
1975186N11267 1975 54 EP MM DENISE 1975-07-10 03:00:00 TS 14.4477 -110.970 main 847 847 P________PP___ EP041975 14.4424 -110.950 HU 107 3 14.4424 -110.950 TC 107 14.4691 -111.052 4 106 14 231
1975186N11267 1975 54 EP MM DENISE 1975-07-10 06:00:00 TS 14.0047 -111.536 105 hurdat_epa main 917 917 O________OP___ hurdat_epa EP041975 14.0000 -111.500 HU 105 3 14.0000 -111.500 TC 105 14.0234 -111.682 4 102 14 234
1975186N11267 1975 54 EP MM DENISE 1975-07-10 09:00:00 TS 13.6224 -112.144 main 995 995 P________PP___ EP041975 13.6177 -112.125 HU 102 3 13.6177 -112.125 TC 102 13.6409 -112.220 4 98 12 240
1975186N11267 1975 54 EP MM DENISE 1975-07-10 12:00:00 TS 13.4000 -112.600 100 hurdat_epa main 1049 1049 O________OO___ hurdat_epa EP041975 13.4000 -112.600 HU 100 3 13.4000 -112.600 TC 100 13.4000 -112.600 4 95 6 250
1975186N11267 1975 54 EP MM DENISE 1975-07-10 15:00:00 TS 13.4179 -112.734 main 1057 1042 P________PP___ EP041975 13.4248 -112.747 HU 95 2 13.4248 -112.747 TC 95 13.3901 -112.683 4 92 2 337
1975186N11267 1975 54 EP MM DENISE 1975-07-10 18:00:00 TS 13.5853 -112.683 90 hurdat_epa main 1042 1019 O________OP___ hurdat_epa EP041975 13.6000 -112.700 HU 90 2 13.6000 -112.700 TC 90 13.5266 -112.617 4 90 4 27
1975186N11267 1975 54 EP MM DENISE 1975-07-10 21:00:00 TS 13.7839 -112.548 main 1011 996 P________PP___ EP041975 13.7925 -112.555 HU 85 2 13.7925 -112.555 TC 85 13.7497 -112.518 4 87 5 23
1975186N11267 1975 54 EP MM DENISE 1975-07-11 00:00:00 TS 14.0000 -112.500 80 hurdat_epa main 996 996 O________OO___ hurdat_epa EP041975 14.0000 -112.500 HU 80 1 14.0000 -112.500 TC 80 14.0000 -112.500 4 85 4 328
1975186N11267 1975 54 EP MM DENISE 1975-07-11 03:00:00 TS 14.1440 -112.778 main 1014 1007 P________PP___ EP041975 14.1426 -112.790 HU 80 1 14.1426 -112.790 TC 80 14.1494 -112.733 4 83 7 295
1975186N11267 1975 54 EP MM DENISE 1975-07-11 06:00:00 TS 14.3036 -113.172 80 hurdat_epa main 1019 1005 O________OP___ hurdat_epa EP041975 14.3000 -113.200 HU 80 1 14.3000 -113.200 TC 80 14.3180 -113.060 4 82 8 298
1975186N11267 1975 54 EP MM DENISE 1975-07-11 09:00:00 TS 14.5155 -113.499 main 1009 990 P________PP___ EP041975 14.5125 -113.515 HU 80 1 14.5125 -113.515 TC 80 14.5275 -113.433 4 81 8 309
1975186N11267 1975 54 EP MM DENISE 1975-07-11 12:00:00 TS 14.8000 -113.800 80 hurdat_epa main 990 968 O________OO___ hurdat_epa EP041975 14.8000 -113.800 HU 80 1 14.8000 -113.800 TC 80 14.8000 -113.800 4 80 9 321
1975186N11267 1975 54 EP MM DENISE 1975-07-11 15:00:00 TS 15.1704 -114.056 main 962 932 P________PP___ EP041975 15.1699 -114.050 HU 80 1 15.1699 -114.050 TC 80 15.1722 -114.077 4 78 9 328
1975186N11267 1975 54 EP MM DENISE 1975-07-11 18:00:00 TS 15.6009 -114.309 80 hurdat_epa main 932 904 O________OP___ hurdat_epa EP041975 15.6000 -114.300 HU 80 1 15.6000 -114.300 TC 80 15.6046 -114.343 4 77 10 330
1975186N11267 1975 54 EP MM DENISE 1975-07-11 21:00:00 TS 16.0579 -114.590 main 900 880 P________PP___ EP041975 16.0575 -114.585 HU 77 1 16.0575 -114.585 TC 77 16.0597 -114.612 4 76 11 328
1975186N11267 1975 54 EP MM DENISE 1975-07-12 00:00:00 TS 16.5000 -114.900 75 hurdat_epa main 880 865 O________OO___ hurdat_epa EP041975 16.5000 -114.900 HU 75 1 16.5000 -114.900 TC 75 16.5000 -114.900 4 75 10 323
1975186N11267 1975 54 EP MM DENISE 1975-07-12 03:00:00 TS 16.8654 -115.235 main 863 857 P________PP___ EP041975 16.8650 -115.243 HU 70 1 16.8650 -115.243 TC 70 16.8671 -115.205 4 73 10 317
1975186N11267 1975 54 EP MM DENISE 1975-07-12 06:00:00 TS 17.2029 -115.587 65 hurdat_epa main 864 854 O________OP___ hurdat_epa EP041975 17.2000 -115.600 HU 65 1 17.2000 -115.600 TC 65 17.2144 -115.534 4 72 10 316
1975186N11267 1975 54 EP MM DENISE 1975-07-12 09:00:00 TS 17.5507 -115.921 main 854 853 P________PP___ EP041975 17.5498 -115.928 HU 65 1 17.5498 -115.928 TC 65 17.5545 -115.896 4 71 10 316
1975186N11267 1975 54 EP MM DENISE 1975-07-12 12:00:00 TS 17.9000 -116.300 65 hurdat_epa main 862 861 O________OO___ hurdat_epa EP041975 17.9000 -116.300 HU 65 1 17.9000 -116.300 TC 65 17.9000 -116.300 4 70 11 311
1975186N11267 1975 54 EP MM DENISE 1975-07-12 15:00:00 TS 18.2575 -116.786 main 864 861 P________PP___ EP041975 18.2425 -116.778 HU 65 1 18.2425 -116.778 TC 65 18.3175 -116.820 4 68 12 307
1975186N11267 1975 54 EP MM DENISE 1975-07-12 18:00:00 TS 18.6268 -117.315 65 hurdat_epa main 868 861 O________OP___ hurdat_epa EP041975 18.6000 -117.300 HU 65 1 18.6000 -117.300 TC 65 18.7340 -117.373 4 67 13 308
1975186N11267 1975 54 EP MM DENISE 1975-07-12 21:00:00 TS 19.0518 -117.865 main 865 863 P________PP___ EP041975 19.0377 -117.860 HU 65 1 19.0377 -117.860 TC 65 19.1082 -117.889 4 66 12 310
1975186N11267 1975 54 EP MM DENISE 1975-07-13 00:00:00 TS 19.4000 -118.300 65 hurdat_epa main 871 870 O________OO___ hurdat_epa EP041975 19.4000 -118.300 HU 65 1 19.4000 -118.300 TC 65 19.4000 -118.300 4 65 8 311
1975186N11267 1975 54 EP MM DENISE 1975-07-13 03:00:00 TS 19.5531 -118.472 main 870 870 P________PP___ EP041975 19.5522 -118.460 HU 65 1 19.5522 -118.460 TC 65 19.5563 -118.520 4 62 3 314
1975186N11267 1975 54 EP MM DENISE 1975-07-13 06:00:00 TS 19.6063 -118.526 65 hurdat_epa main 870 870 O________OP___ hurdat_epa EP041975 19.6000 -118.500 HU 65 1 19.6000 -118.500 TC 65 19.6315 -118.629 4 60 2 308
1975186N11267 1975 54 EP MM DENISE 1975-07-13 09:00:00 TS 19.6532 -118.615 main 870 870 P________PP___ EP041975 19.6500 -118.600 HU 55 0 19.6500 -118.600 TC 55 19.6660 -118.673 4 57 2 300
1975186N11267 1975 54 EP MM DENISE 1975-07-13 12:00:00 TS 19.7000 -118.700 45 hurdat_epa main 878 878 O________OO___ hurdat_epa EP041975 19.7000 -118.700 TS 45 0 19.7000 -118.700 TC 45 19.7000 -118.700 2 55 2 308
1975186N11267 1975 54 EP MM DENISE 1975-07-13 15:00:00 TS 19.7934 -118.803 main 879 879 P________PP___ EP041975 19.7925 -118.807 TS 45 0 19.7925 -118.807 TC 45 19.7969 -118.786 2 51 3 318
1975186N11267 1975 54 EP MM DENISE 1975-07-13 18:00:00 TS 19.9000 -118.893 45 hurdat_epa main 879 872 O________OP___ hurdat_epa EP041975 19.9000 -118.900 TS 45 0 19.9000 -118.900 TC 45 19.9000 -118.865 2 47 3 326
1975186N11267 1975 54 EP MM DENISE 1975-07-13 21:00:00 TS 20.0066 -118.953 main 880 873 P________PP___ EP041975 20.0075 -118.958 TS 42 0 20.0075 -118.958 TC 42 20.0031 -118.936 2 43 2 333
1975186N11267 1975 54 EP MM DENISE 1975-07-14 00:00:00 TS 20.1000 -119.000 40 hurdat_epa main 873 866 O________OO___ hurdat_epa EP041975 20.1000 -119.000 TS 40 0 20.1000 -119.000 TC 40 20.1000 -119.000 2 40 2 327
1975186N11267 1975 54 EP MM DENISE 1975-07-14 03:00:00 TS 20.1556 -119.055 main 875 875 P________PP___ EP041975 20.1500 -119.050 TS 37 0 20.1500 -119.050 TC 37 20.1781 -119.073 2 38 1 316
1975186N11267 1975 54 EP MM DENISE 1975-07-14 06:00:00 TS 20.2100 -119.107 35 hurdat_epa main 875 868 O________OP___ hurdat_epa EP041975 20.2000 -119.100 TS 35 0 20.2000 -119.100 TC 35 20.2500 -119.137 2 37 2 324
1975186N11267 1975 54 EP MM DENISE 1975-07-14 09:00:00 TS 20.2984 -119.163 main 876 870 P________PP___ EP041975 20.2925 -119.157 TS 35 0 20.2925 -119.157 TC 35 20.3219 -119.183 2 36 2 335
1975186N11267 1975 54 EP MM DENISE 1975-07-14 12:00:00 TS 20.4000 -119.200 35 hurdat_epa main 870 863 O________OO___ hurdat_epa EP041975 20.4000 -119.200 TS 35 0 20.4000 -119.200 TC 35 20.4000 -119.200 2 35 2 346
1975186N11267 1975 54 EP MM DENISE 1975-07-14 15:00:00 TS 20.4978 -119.215 main 863 857 P________PP___ EP041975 20.5000 -119.222 TS 32 -1 20.5000 -119.222 TC 32 20.4891 -119.183 2 32 2 3
1975186N11267 1975 54 EP MM DENISE 1975-07-14 18:00:00 TS 20.5975 -119.188 30 hurdat_epa main 857 842 O________OP___ hurdat_epa EP041975 20.6000 -119.200 TD 30 -1 20.6000 -119.200 TC 30 20.5875 -119.138 2 30 2 26
1975186N11267 1975 54 EP MM DENISE 1975-07-14 21:00:00 TS 20.6985 -119.109 main 842 827 P________PP___ EP041975 20.7000 -119.118 TD 27 -1 20.7000 -119.118 TC 27 20.6922 -119.074 2 27 3 41
1975186N11267 1975 54 EP MM DENISE 1975-07-15 00:00:00 TS 20.8000 -119.000 25 hurdat_epa main 827 O________OO___ hurdat_epa EP041975 20.8000 -119.000 TD 25 -1 20.8000 -119.000 TC 25 20.8000 -119.000 1 25 3 47

About IBTrACS Database

This database is a web-friendly format of International Best Track Archive for Climate Stewardship (IBTrACS), a global best track data archive curated by NOAA dating back to 1842.

Updated: 2021-12-08